createdAt,value
2022-11-08T00:00:19.929Z,96056.63
2022-11-08T00:02:47.693Z,96055.81
2022-11-08T00:05:32.978Z,96016.00
2022-11-08T00:08:21.597Z,96050.22
2022-11-08T00:11:06.784Z,96055.19
2022-11-08T00:13:51.830Z,96054.34
2022-11-08T00:16:20.836Z,96049.84
2022-11-08T00:18:48.484Z,96045.81
2022-11-08T00:21:16.175Z,96052.81
2022-11-08T00:23:44.792Z,96044.69
2022-11-08T00:26:12.476Z,96019.63
2022-11-08T00:28:40.138Z,96039.06
2022-11-08T00:31:08.386Z,96018.91
2022-11-08T00:33:37.480Z,96040.28
2022-11-08T00:36:06.082Z,96045.19
2022-11-08T00:38:33.794Z,96035.22
2022-11-08T00:41:01.482Z,95928.81
2022-11-08T00:43:29.141Z,96023.25
2022-11-08T00:45:56.782Z,96032.28
2022-11-08T00:48:24.653Z,96035.63
2022-11-08T00:50:53.818Z,96027.16
2022-11-08T00:53:21.462Z,96031.81
2022-11-08T00:55:49.140Z,96033.13
2022-11-08T00:58:17.169Z,96024.97
2022-11-08T01:00:45.273Z,96010.53
2022-11-08T01:03:21.817Z,95986.19
2022-11-08T01:05:50.069Z,95986.25
2022-11-08T01:08:20.840Z,96001.94
2022-11-08T01:10:50.118Z,96006.19
2022-11-08T01:13:18.859Z,96000.69
2022-11-08T01:15:47.222Z,95990.63
2022-11-08T01:18:19.841Z,95994.50
2022-11-08T01:20:49.932Z,95990.84
2022-11-08T01:23:20.404Z,95986.81
2022-11-08T01:25:49.520Z,95985.00
2022-11-08T01:28:18.411Z,95979.47
2022-11-08T01:30:46.839Z,95985.50
2022-11-08T01:33:15.773Z,95978.28
2022-11-08T01:35:46.283Z,95990.63
2022-11-08T01:38:14.570Z,95969.84
2022-11-08T01:40:48.336Z,95986.06
2022-11-08T01:43:41.235Z,95985.97
2022-11-08T01:46:33.743Z,95980.34
2022-11-08T01:49:21.768Z,95978.69
2022-11-08T01:51:56.013Z,95977.91
2022-11-08T01:54:29.039Z,95967.59
2022-11-08T01:57:01.197Z,95964.22
2022-11-08T01:59:29.649Z,95966.75
2022-11-08T02:01:57.973Z,95966.50
2022-11-08T02:04:26.027Z,95959.38
2022-11-08T02:06:54.601Z,95959.06
2022-11-08T02:09:22.276Z,95934.44
2022-11-08T02:11:51.017Z,95953.44
2022-11-08T02:14:20.270Z,95951.38
2022-11-08T02:16:48.117Z,95946.25
2022-11-08T02:19:25.224Z,95939.03
2022-11-08T02:21:57.178Z,95929.78
2022-11-08T02:24:26.231Z,95937.22
2022-11-08T02:26:56.180Z,95936.66
2022-11-08T02:29:27.159Z,95939.28
2022-11-08T02:31:55.414Z,95936.13
2022-11-08T02:34:27.013Z,95828.19
2022-11-08T02:36:56.639Z,95931.81
2022-11-08T02:39:26.098Z,95934.69
2022-11-08T02:41:53.823Z,95925.56
2022-11-08T02:44:21.550Z,95925.47
2022-11-08T02:46:49.179Z,95913.78
2022-11-08T02:49:16.892Z,95919.88
2022-11-08T02:51:44.557Z,95939.25
2022-11-08T02:54:12.389Z,95915.88
2022-11-08T02:56:41.452Z,95917.44
2022-11-08T02:59:09.157Z,95917.91
2022-11-08T03:01:36.961Z,95855.81
2022-11-08T03:04:04.992Z,95910.41
2022-11-08T03:06:32.780Z,95907.81
2022-11-08T03:09:00.695Z,95910.56
2022-11-08T03:11:28.929Z,95903.50
2022-11-08T03:13:58.175Z,95848.16
2022-11-08T03:16:25.923Z,95904.47
2022-11-08T03:18:54.817Z,95903.50
2022-11-08T03:21:24.955Z,95903.28
2022-11-08T03:23:55.081Z,95911.44
2022-11-08T03:26:22.789Z,95912.38
2022-11-08T03:28:50.514Z,95910.50
2022-11-08T03:31:21.720Z,95904.06
2022-11-08T03:33:49.434Z,95915.13
2022-11-08T03:36:17.237Z,95915.84
2022-11-08T03:38:44.972Z,95907.03
2022-11-08T03:41:12.704Z,95911.31
2022-11-08T03:43:40.482Z,95908.00
2022-11-08T03:46:08.430Z,95880.06
2022-11-08T03:48:37.489Z,95910.44
2022-11-08T03:51:05.448Z,95872.22
2022-11-08T03:53:33.142Z,95897.91
2022-11-08T03:56:01.022Z,95901.22
2022-11-08T03:58:29.092Z,95885.59
2022-11-08T04:00:58.191Z,95894.59
2022-11-08T04:03:26.044Z,95898.56
2022-11-08T04:05:56.084Z,95892.69
2022-11-08T04:08:23.779Z,95875.13
2022-11-08T04:10:55.032Z,95888.84
2022-11-08T04:13:40.552Z,95885.75
2022-11-08T04:16:11.794Z,95885.81
2022-11-08T04:19:00.451Z,95885.81
2022-11-08T04:21:29.524Z,95883.53
2022-11-08T04:23:57.212Z,95878.63
2022-11-08T04:26:24.959Z,95873.88
2022-11-08T04:28:52.668Z,95874.88
2022-11-08T04:31:21.507Z,95888.31
2022-11-08T04:33:49.238Z,95881.31
2022-11-08T04:36:17.901Z,95866.63
2022-11-08T04:38:49.225Z,95884.69
2022-11-08T04:41:18.670Z,95866.63
2022-11-08T04:43:46.574Z,95873.34
2022-11-08T04:46:15.798Z,95858.06
2022-11-08T04:48:44.004Z,95868.97
2022-11-08T04:51:14.250Z,95844.75
2022-11-08T04:53:42.338Z,95870.06
2022-11-08T04:56:13.370Z,95860.44
2022-11-08T04:58:42.701Z,95859.69
2022-11-08T05:01:12.282Z,95849.34
2022-11-08T05:03:40.065Z,95824.56
2022-11-08T05:06:11.141Z,95850.44
2022-11-08T05:08:39.234Z,95832.84
2022-11-08T05:11:12.944Z,95848.84
2022-11-08T05:13:41.828Z,95833.72
2022-11-08T05:16:12.988Z,95844.47
2022-11-08T05:18:42.133Z,95838.38
2022-11-08T05:21:29.524Z,95839.63
2022-11-08T05:23:58.151Z,95840.34
2022-11-08T05:26:28.287Z,95823.16
2022-11-08T05:28:56.153Z,95840.44
2022-11-08T05:31:24.955Z,95833.44
2022-11-08T05:33:52.914Z,95828.16
2022-11-08T05:36:20.975Z,95830.19
2022-11-08T05:38:48.741Z,95818.00
2022-11-08T05:41:18.838Z,95843.53
2022-11-08T05:43:49.559Z,95819.13
2022-11-08T05:46:18.272Z,95840.03
2022-11-08T05:48:47.784Z,95816.28
2022-11-08T05:51:17.447Z,95816.16
2022-11-08T05:53:47.135Z,95830.19
2022-11-08T05:56:15.136Z,95839.13
2022-11-08T05:58:42.825Z,95838.25
2022-11-08T06:01:14.486Z,95835.78
2022-11-08T06:03:42.466Z,95819.16
2022-11-08T06:06:12.548Z,95832.50
2022-11-08T06:08:41.877Z,95840.88
2022-11-08T06:11:13.503Z,95835.31
2022-11-08T06:13:42.055Z,95838.94
2022-11-08T06:16:13.200Z,95835.19
2022-11-08T06:18:40.957Z,95850.47
2022-11-08T06:21:12.006Z,95843.00
2022-11-08T06:23:40.911Z,95848.91
2022-11-08T06:26:09.191Z,95840.16
2022-11-08T06:28:37.079Z,95854.31
2022-11-08T06:31:05.812Z,95846.06
2022-11-08T06:33:35.165Z,95841.22
2022-11-08T06:36:03.016Z,95835.78
2022-11-08T06:38:30.782Z,95817.00
2022-11-08T06:41:00.228Z,95845.19
2022-11-08T06:43:29.986Z,95850.56
2022-11-08T06:46:01.288Z,95859.28
2022-11-08T06:48:35.087Z,95854.41
2022-11-08T06:51:05.344Z,95850.13
2022-11-08T06:53:33.748Z,95850.66
2022-11-08T06:56:01.845Z,95855.97
2022-11-08T06:58:29.759Z,95856.16
2022-11-08T07:00:57.501Z,95849.69
2022-11-08T07:03:25.284Z,95855.09
2022-11-08T07:05:52.913Z,95848.03
2022-11-08T07:08:23.879Z,95863.00
2022-11-08T07:10:52.126Z,95862.44
2022-11-08T07:13:20.254Z,95856.41
2022-11-08T07:15:48.501Z,95850.53
2022-11-08T07:18:18.082Z,95864.47
2022-11-08T07:20:45.913Z,95848.75
2022-11-08T07:23:13.669Z,95837.53
2022-11-08T07:25:42.930Z,95855.59
2022-11-08T07:28:17.474Z,95859.53
2022-11-08T07:30:45.788Z,95857.78
2022-11-08T07:33:13.855Z,95862.31
2022-11-08T07:35:41.674Z,95861.13
2022-11-08T07:38:09.430Z,95846.72
2022-11-08T07:40:38.826Z,95848.09
2022-11-08T07:43:12.728Z,95859.63
2022-11-08T07:45:41.129Z,95858.59
2022-11-08T07:48:12.595Z,95836.44
2022-11-08T07:50:41.725Z,95848.31
2022-11-08T07:53:09.977Z,95840.47
2022-11-08T07:55:38.158Z,95839.81
2022-11-08T07:58:06.573Z,95837.38
2022-11-08T08:00:37.408Z,95836.00
2022-11-08T08:03:07.555Z,95831.69
2022-11-08T08:05:37.239Z,95830.59
2022-11-08T08:08:05.785Z,95824.41
2022-11-08T08:10:33.809Z,95829.38
2022-11-08T08:13:02.197Z,95818.19
2022-11-08T08:15:29.907Z,95804.34
2022-11-08T08:18:00.803Z,95828.16
2022-11-08T08:20:28.665Z,95827.94
2022-11-08T08:22:56.349Z,95823.28
2022-11-08T08:25:24.483Z,95818.09
2022-11-08T08:27:56.620Z,95843.94
2022-11-08T08:30:25.468Z,95827.00
2022-11-08T08:33:14.631Z,95815.22
2022-11-08T08:35:44.046Z,95839.25
2022-11-08T08:38:12.751Z,95833.47
2022-11-08T08:40:41.221Z,95834.28
2022-11-08T08:43:09.054Z,95834.88
2022-11-08T08:45:37.750Z,95837.03
2022-11-08T08:48:05.934Z,95839.97
2022-11-08T08:50:34.594Z,95836.88
2022-11-08T08:53:06.157Z,95830.56
2022-11-08T08:55:37.359Z,95831.88
2022-11-08T08:58:05.739Z,95832.94
2022-11-08T09:03:21.683Z,95830.22
2022-11-08T09:05:49.655Z,95832.00
2022-11-08T09:08:18.760Z,95834.09
2022-11-08T09:10:47.108Z,95821.72
2022-11-08T09:13:14.980Z,95832.09
2022-11-08T09:15:42.841Z,95827.84
2022-11-08T09:18:10.643Z,95814.84
2022-11-08T09:20:38.314Z,95834.66
2022-11-08T09:23:06.028Z,95753.03
2022-11-08T09:25:35.109Z,95775.22
2022-11-08T09:28:02.797Z,95782.50
2022-11-08T09:30:30.581Z,95810.50
2022-11-08T09:33:01.388Z,95806.13
2022-11-08T09:35:30.610Z,95858.88
2022-11-08T09:37:58.637Z,95834.84
2022-11-08T09:40:31.623Z,95813.88
2022-11-08T09:43:24.683Z,95827.94
2022-11-08T09:45:55.944Z,95842.63
2022-11-08T09:48:27.787Z,95842.00
2022-11-08T09:50:58.417Z,95839.34
2022-11-08T09:53:35.345Z,95824.44
2022-11-08T09:56:08.908Z,95785.25
2022-11-08T09:58:42.257Z,95826.63
2022-11-08T10:01:12.971Z,95815.91
2022-11-08T10:03:45.546Z,95824.75
2022-11-08T10:06:34.369Z,95828.94
2022-11-08T10:09:14.906Z,95824.47
2022-11-08T10:11:58.825Z,95788.69
2022-11-08T10:14:50.579Z,95799.72
2022-11-08T10:17:42.502Z,95830.84
2022-11-08T10:20:19.878Z,95822.97
2022-11-08T10:22:53.491Z,95827.84
2022-11-08T10:25:25.553Z,95818.34
2022-11-08T10:27:56.939Z,95820.13
2022-11-08T10:30:35.440Z,95794.78
2022-11-08T10:33:03.825Z,95815.25
2022-11-08T10:35:37.556Z,95813.94
2022-11-08T10:38:16.539Z,95809.44
2022-11-08T10:40:51.948Z,95806.28
2022-11-08T10:43:25.815Z,95814.94
2022-11-08T10:45:54.941Z,95802.69
2022-11-08T10:48:22.813Z,95779.25
2022-11-08T10:50:52.570Z,95772.75
2022-11-08T10:53:25.453Z,95801.28
2022-11-08T10:55:59.729Z,95804.56
2022-11-08T10:58:34.352Z,95787.72
2022-11-08T11:01:06.834Z,95795.97
2022-11-08T11:03:34.719Z,95669.97
2022-11-08T11:06:04.182Z,95802.66
2022-11-08T11:08:32.547Z,95780.06
2022-11-08T11:11:24.981Z,95794.84
2022-11-08T11:14:18.191Z,95769.75
2022-11-08T11:16:56.599Z,95790.16
2022-11-08T11:19:25.032Z,95793.09
2022-11-08T11:21:57.579Z,95790.84
2022-11-08T11:24:25.999Z,95783.84
2022-11-08T11:27:06.276Z,95772.28
2022-11-08T11:29:35.513Z,95790.97
2022-11-08T11:32:26.542Z,95783.19
2022-11-08T11:34:57.460Z,95780.19
2022-11-08T11:37:37.200Z,95777.13
2022-11-08T11:40:14.758Z,95768.19
2022-11-08T11:42:48.776Z,95754.22
2022-11-08T11:45:20.494Z,95776.00
2022-11-08T11:47:53.385Z,95771.91
2022-11-08T11:50:29.586Z,95762.44
2022-11-08T11:52:58.912Z,95778.50
2022-11-08T11:55:39.923Z,95783.59
2022-11-08T11:58:20.072Z,95787.38
2022-11-08T12:00:55.568Z,95759.91
2022-11-08T12:03:39.897Z,95776.19
2022-11-08T12:06:25.617Z,95765.03
2022-11-08T12:09:07.539Z,95684.00
2022-11-08T12:11:49.688Z,95791.41
2022-11-08T12:14:30.514Z,95774.75
2022-11-08T12:17:25.438Z,95774.84
2022-11-08T12:20:10.498Z,95771.41
2022-11-08T12:22:53.457Z,95746.44
2022-11-08T12:25:27.541Z,95770.16
2022-11-08T12:28:02.290Z,95773.66
2022-11-08T12:30:38.534Z,95768.56
2022-11-08T12:33:22.304Z,95755.06
2022-11-08T12:36:10.740Z,95775.03
2022-11-08T12:38:49.061Z,95784.06
2022-11-08T12:41:24.936Z,95756.84
2022-11-08T12:44:12.399Z,95768.59
2022-11-08T12:46:49.955Z,95773.88
2022-11-08T12:49:27.940Z,95767.03
2022-11-08T12:52:13.056Z,95783.09
2022-11-08T12:54:44.670Z,95784.53
2022-11-08T12:57:16.331Z,95757.22
2022-11-08T12:59:46.604Z,95784.53
2022-11-08T13:02:19.489Z,95785.81
2022-11-08T13:04:56.062Z,95788.84
2022-11-08T13:07:34.105Z,95770.03
2022-11-08T13:10:08.787Z,95763.88
2022-11-08T13:12:47.801Z,95768.84
2022-11-08T13:15:19.210Z,95791.97
2022-11-08T13:18:26.135Z,95795.94
2022-11-08T13:20:53.855Z,95797.28
2022-11-08T13:23:30.304Z,95789.16
2022-11-08T13:26:13.773Z,95780.31
2022-11-08T13:28:43.265Z,95784.81
2022-11-08T13:31:25.591Z,95780.25
2022-11-08T13:34:27.171Z,95781.13
2022-11-08T13:37:06.249Z,95782.69
2022-11-08T13:40:04.139Z,95791.41
2022-11-08T13:42:40.634Z,95756.03
2022-11-08T13:45:28.419Z,95683.19
2022-11-08T13:47:58.584Z,95779.94
2022-11-08T13:50:54.150Z,95783.66
2022-11-08T13:53:42.428Z,95717.47
2022-11-08T13:56:35.351Z,95782.59
2022-11-08T13:59:03.064Z,95777.41
2022-11-08T14:01:58.762Z,95775.63
2022-11-08T14:04:28.672Z,95732.38
2022-11-08T14:07:07.363Z,95751.47
2022-11-08T14:09:44.517Z,95771.53
2022-11-08T14:12:19.042Z,95767.81
2022-11-08T14:14:57.644Z,95648.13
2022-11-08T14:17:40.667Z,95776.44
2022-11-08T14:20:27.630Z,95777.91
2022-11-08T14:22:56.010Z,95767.22
2022-11-08T14:25:28.934Z,95771.16
2022-11-08T14:27:58.809Z,95761.25
2022-11-08T14:30:27.436Z,95771.16
2022-11-08T14:33:15.413Z,95773.97
2022-11-08T14:35:43.345Z,95774.66
2022-11-08T14:38:14.870Z,95774.16
2022-11-08T14:40:49.850Z,95774.25
2022-11-08T14:43:20.132Z,95773.84
2022-11-08T14:45:48.515Z,95749.81
2022-11-08T14:48:22.396Z,95767.16
2022-11-08T14:50:50.146Z,95763.00
2022-11-08T14:53:27.164Z,95763.13
2022-11-08T14:56:20.783Z,95766.91
2022-11-08T14:58:49.982Z,95768.06
2022-11-08T15:01:20.372Z,95760.72
2022-11-08T15:03:52.915Z,95753.22
2022-11-08T15:06:30.484Z,95761.28
2022-11-08T15:09:08.129Z,95752.97
2022-11-08T15:11:40.989Z,95753.81
2022-11-08T15:14:12.735Z,95629.72
2022-11-08T15:16:42.471Z,95718.25
2022-11-08T15:19:27.678Z,95741.00
2022-11-08T15:21:55.403Z,95753.13
2022-11-08T15:24:36.715Z,95754.56
2022-11-08T15:27:16.574Z,95751.69
2022-11-08T15:29:52.271Z,95751.28
2022-11-08T15:32:22.319Z,95743.72
2022-11-08T15:34:54.053Z,95719.53
2022-11-08T15:37:22.660Z,95746.00
2022-11-08T15:39:52.058Z,95747.69
2022-11-08T15:42:22.526Z,95753.81
2022-11-08T15:45:01.388Z,95651.34
2022-11-08T15:47:46.081Z,95754.34
2022-11-08T15:50:16.880Z,95727.16
2022-11-08T15:52:45.836Z,95747.19
2022-11-08T15:55:15.754Z,95734.16
2022-11-08T15:57:46.728Z,95729.44
2022-11-08T16:00:22.133Z,95681.91
2022-11-08T16:02:55.865Z,95738.47
2022-11-08T16:05:25.160Z,95742.28
2022-11-08T16:07:53.887Z,95738.19
2022-11-08T16:10:28.017Z,95741.75
2022-11-08T16:12:58.754Z,95730.53
2022-11-08T16:15:27.476Z,95723.78
2022-11-08T16:17:55.333Z,95747.41
2022-11-08T16:20:26.931Z,95742.38
2022-11-08T16:22:54.990Z,95741.13
2022-11-08T16:25:23.306Z,95742.31
2022-11-08T16:27:54.340Z,95739.66
2022-11-08T16:30:23.458Z,95750.50
2022-11-08T16:32:51.668Z,95745.50
2022-11-08T16:35:20.171Z,95694.50
2022-11-08T16:37:48.413Z,95738.88
2022-11-08T16:40:18.438Z,95747.75
2022-11-08T16:42:46.266Z,95732.09
2022-11-08T16:45:14.380Z,95741.03
2022-11-08T16:47:46.538Z,95747.84
2022-11-08T16:50:17.358Z,95719.81
2022-11-08T16:52:45.214Z,95751.00
2022-11-08T16:55:17.615Z,95759.75
2022-11-08T16:57:46.667Z,95708.09
2022-11-08T17:00:16.377Z,95737.72
2022-11-08T17:02:48.914Z,95728.50
2022-11-08T17:05:19.530Z,95746.63
2022-11-08T17:07:47.253Z,95708.13
2022-11-08T17:10:20.905Z,95750.88
2022-11-08T17:12:48.962Z,95765.38
2022-11-08T17:15:18.133Z,95749.09
2022-11-08T17:17:47.961Z,95749.09
2022-11-08T17:20:17.401Z,95758.81
2022-11-08T17:22:46.639Z,95765.38
2022-11-08T17:25:16.817Z,95755.91
2022-11-08T17:27:45.270Z,95758.81
2022-11-08T17:30:15.816Z,95763.81
2022-11-08T17:32:44.253Z,95762.25
2022-11-08T17:35:14.681Z,95764.59
2022-11-08T17:37:42.535Z,95761.44
2022-11-08T17:40:11.213Z,95771.41
2022-11-08T17:42:40.012Z,95763.81
2022-11-08T17:45:08.927Z,95767.25
2022-11-08T17:47:39.131Z,95762.00
2022-11-08T17:50:09.278Z,95767.53
2022-11-08T17:52:38.613Z,95709.81
2022-11-08T17:55:07.333Z,95755.22
2022-11-08T17:57:35.140Z,95759.16
2022-11-08T18:00:03.768Z,95694.84
2022-11-08T18:02:40.260Z,95770.44
2022-11-08T18:05:09.300Z,95773.84
2022-11-08T18:07:40.801Z,95770.69
2022-11-08T18:10:09.936Z,95695.38
2022-11-08T18:12:37.900Z,95734.25
2022-11-08T18:15:06.570Z,95699.06
2022-11-08T18:17:34.315Z,95772.28
2022-11-08T18:20:02.249Z,95741.31
2022-11-08T18:22:29.994Z,95667.06
2022-11-08T18:24:59.071Z,95674.66
2022-11-08T18:27:26.992Z,95756.78
2022-11-08T18:29:54.665Z,95756.78
2022-11-08T18:32:22.417Z,95747.88
2022-11-08T18:34:50.163Z,95762.56
2022-11-08T18:37:18.012Z,95752.28
2022-11-08T18:39:45.712Z,95687.53
2022-11-08T18:42:14.793Z,95714.00
2022-11-08T18:44:42.536Z,95648.41
2022-11-08T18:47:10.322Z,95648.66
2022-11-08T18:49:38.093Z,95763.56
2022-11-08T18:52:06.167Z,95740.47
2022-11-08T18:54:33.990Z,95707.19
2022-11-08T18:57:01.678Z,95766.47
2022-11-08T18:59:30.836Z,95753.59
2022-11-08T19:01:58.814Z,95766.19
2022-11-08T19:04:27.888Z,95768.81
2022-11-08T19:06:55.707Z,95655.78
2022-11-08T19:09:23.532Z,95674.13
2022-11-08T19:11:51.414Z,95765.94
2022-11-08T19:14:19.635Z,95776.16
2022-11-08T19:16:52.042Z,95742.84
2022-11-08T19:19:19.853Z,95697.22
2022-11-08T19:21:47.600Z,95714.53
2022-11-08T19:24:15.483Z,95764.88
2022-11-08T19:26:43.329Z,95741.56
2022-11-08T19:29:12.315Z,95600.97
2022-11-08T19:31:40.038Z,95696.44
2022-11-08T19:34:09.920Z,95732.91
2022-11-08T19:36:43.126Z,95799.03
2022-11-08T19:39:11.524Z,95742.88
2022-11-08T19:41:40.041Z,95772.00
2022-11-08T19:44:08.288Z,95786.69
2022-11-08T19:46:36.477Z,95781.44
2022-11-08T19:49:05.721Z,95778.56
2022-11-08T19:51:35.628Z,95721.38
2022-11-08T19:54:06.004Z,95779.63
2022-11-08T19:57:04.193Z,95776.72
2022-11-08T19:59:23.468Z,95772.78
2022-11-08T20:01:51.409Z,95767.78
2022-11-08T20:04:19.500Z,95762.03
2022-11-08T20:06:48.664Z,95758.63
2022-11-08T20:09:16.617Z,95771.97
2022-11-08T20:11:44.796Z,95775.38
2022-11-08T20:14:14.015Z,95770.94
2022-11-08T20:16:47.824Z,95756.22
2022-11-08T20:19:18.932Z,95674.38
2022-11-08T20:21:48.169Z,95766.09
2022-11-08T20:24:16.406Z,95659.59
2022-11-08T20:26:45.088Z,95768.34
2022-11-08T20:29:14.440Z,95748.06
2022-11-08T20:31:42.762Z,95763.50
2022-11-08T20:34:12.775Z,95763.22
2022-11-08T20:36:41.540Z,95768.13
2022-11-08T20:39:11.489Z,95667.84
2022-11-08T20:41:40.936Z,95656.56
2022-11-08T20:44:09.825Z,95754.56
2022-11-08T20:46:38.577Z,95763.00
2022-11-08T20:49:07.015Z,95761.22
2022-11-08T20:51:36.836Z,95762.06
2022-11-08T20:54:05.125Z,95703.66
2022-11-08T20:56:34.217Z,95771.41
2022-11-08T20:59:02.992Z,95682.78
2022-11-08T21:01:32.704Z,95763.56
2022-11-08T21:04:00.964Z,95693.03
2022-11-08T21:06:32.998Z,95757.31
2022-11-08T21:09:20.855Z,95782.22
2022-11-08T21:11:52.359Z,95767.03
2022-11-08T21:14:20.479Z,95766.00
2022-11-08T21:17:15.113Z,95774.91
2022-11-08T21:19:35.778Z,95630.06
2022-11-08T21:22:15.846Z,95712.41
2022-11-08T21:24:48.613Z,95781.75
2022-11-08T21:27:18.135Z,95605.41
2022-11-08T21:38:28.472Z,95754.16
2022-11-08T21:40:56.496Z,95761.75
2022-11-08T21:43:25.551Z,95758.09
2022-11-08T21:45:53.308Z,95735.78
2022-11-08T21:48:21.601Z,95752.56
2022-11-08T21:50:49.486Z,95744.44
2022-11-08T21:53:17.250Z,95731.06
2022-11-08T21:55:46.026Z,95750.72
2022-11-08T21:58:13.759Z,95724.22
2022-11-08T22:00:43.032Z,95720.81
2022-11-08T22:03:12.063Z,95759.66
2022-11-08T22:05:39.783Z,95747.81
2022-11-08T22:08:07.461Z,95720.28
2022-11-08T22:11:00.805Z,95749.94
2022-11-08T22:13:28.444Z,95758.06
2022-11-08T22:15:57.568Z,95745.69
2022-11-08T22:18:50.252Z,95732.03
2022-11-08T22:21:45.264Z,95738.34
2022-11-08T22:24:14.889Z,95748.31
2022-11-08T22:26:42.926Z,95747.28
2022-11-08T22:29:10.993Z,95743.88
2022-11-08T22:31:42.439Z,95718.91
2022-11-08T22:34:11.037Z,95717.34
2022-11-08T22:36:44.888Z,95740.72
2022-11-08T22:39:14.385Z,95743.88
2022-11-08T22:41:42.549Z,95741.25
2022-11-08T22:44:12.338Z,95739.66
2022-11-08T22:46:42.604Z,95745.69
2022-11-08T22:49:10.814Z,95741.25
2022-11-08T22:51:39.463Z,95747.53
2022-11-08T22:54:07.570Z,95744.34
2022-11-08T22:56:35.933Z,95744.59
2022-11-08T22:59:04.287Z,95732.50
2022-11-08T23:01:32.115Z,95713.59
2022-11-08T23:04:05.635Z,95742.97
2022-11-08T23:06:33.440Z,95736.97
2022-11-08T23:09:01.218Z,95722.22
2022-11-08T23:11:48.211Z,95735.31
2022-11-08T23:14:37.128Z,95725.06
2022-11-08T23:17:07.493Z,95734.03
2022-11-08T23:19:53.862Z,95720.88
2022-11-08T23:22:39.480Z,95739.22
2022-11-08T23:25:08.060Z,95736.88
2022-11-08T23:27:53.200Z,95723.19
2022-11-08T23:30:38.283Z,95727.69
2022-11-08T23:33:06.798Z,95734.50
2022-11-08T23:35:36.278Z,95734.72
2022-11-08T23:38:04.266Z,95731.06
2022-11-08T23:40:49.465Z,95738.88
2022-11-08T23:43:36.082Z,95728.09
2022-11-08T23:46:08.759Z,95732.56
2022-11-08T23:48:37.228Z,95728.38
2022-11-08T23:51:10.570Z,95720.72
2022-11-08T23:53:39.821Z,95724.19
2022-11-08T23:56:08.202Z,95718.66
2022-11-08T23:58:35.953Z,95717.56
